sensor_id;sensor_type;location;lat;lon;timestamp;temperature;humidity
17774;DHT22;9011;33.236;-97.118;2023-11-21T00:01:39;18.00;99.90
17774;DHT22;9011;33.236;-97.118;2023-11-21T00:04:07;18.00;99.90
17774;DHT22;9011;33.236;-97.118;2023-11-21T00:06:34;17.90;99.90
17774;DHT22;9011;33.236;-97.118;2023-11-21T00:09:03;17.90;99.90
17774;DHT22;9011;33.236;-97.118;2023-11-21T00:11:32;17.90;99.90
17774;DHT22;9011;33.236;-97.118;2023-11-21T00:13:59;17.70;99.90
17774;DHT22;9011;33.236;-97.118;2023-11-21T00:16:27;17.70;99.90
17774;DHT22;9011;33.236;-97.118;2023-11-21T00:18:54;17.60;99.90
17774;DHT22;9011;33.236;-97.118;2023-11-21T00:21:22;17.60;99.90
17774;DHT22;9011;33.236;-97.118;2023-11-21T00:23:50;17.50;99.90
17774;DHT22;9011;33.236;-97.118;2023-11-21T00:26:18;17.40;99.90
17774;DHT22;9011;33.236;-97.118;2023-11-21T00:28:46;17.30;99.90
17774;DHT22;9011;33.236;-97.118;2023-11-21T00:31:13;17.20;99.90
17774;DHT22;9011;33.236;-97.118;2023-11-21T00:33:41;17.10;99.90
17774;DHT22;9011;33.236;-97.118;2023-11-21T00:36:10;17.00;99.90
17774;DHT22;9011;33.236;-97.118;2023-11-21T00:38:37;17.00;99.90
17774;DHT22;9011;33.236;-97.118;2023-11-21T00:41:06;16.90;99.90
17774;DHT22;9011;33.236;-97.118;2023-11-21T00:43:34;16.90;99.90
17774;DHT22;9011;33.236;-97.118;2023-11-21T00:46:04;16.80;99.90
17774;DHT22;9011;33.236;-97.118;2023-11-21T00:48:33;16.80;99.90
17774;DHT22;9011;33.236;-97.118;2023-11-21T00:51:01;16.70;99.90
17774;DHT22;9011;33.236;-97.118;2023-11-21T00:53:28;16.70;99.90
17774;DHT22;9011;33.236;-97.118;2023-11-21T00:55:56;16.60;99.90
17774;DHT22;9011;33.236;-97.118;2023-11-21T00:58:24;16.50;99.90
17774;DHT22;9011;33.236;-97.118;2023-11-21T01:00:52;16.50;99.90
17774;DHT22;9011;33.236;-97.118;2023-11-21T01:03:20;16.50;99.90
17774;DHT22;9011;33.236;-97.118;2023-11-21T01:05:48;16.40;99.90
17774;DHT22;9011;33.236;-97.118;2023-11-21T01:08:16;16.40;99.90
17774;DHT22;9011;33.236;-97.118;2023-11-21T01:10:44;16.30;99.90
17774;DHT22;9011;33.236;-97.118;2023-11-21T01:13:12;16.30;99.90
17774;DHT22;9011;33.236;-97.118;2023-11-21T01:15:41;16.10;99.90
17774;DHT22;9011;33.236;-97.118;2023-11-21T01:18:10;16.20;99.90
17774;DHT22;9011;33.236;-97.118;2023-11-21T01:20:37;16.00;99.90
17774;DHT22;9011;33.236;-97.118;2023-11-21T01:23:05;15.90;99.90
17774;DHT22;9011;33.236;-97.118;2023-11-21T01:25:32;15.80;99.90
17774;DHT22;9011;33.236;-97.118;2023-11-21T01:28:00;15.80;99.90
17774;DHT22;9011;33.236;-97.118;2023-11-21T01:30:28;15.80;99.90
17774;DHT22;9011;33.236;-97.118;2023-11-21T01:32:55;15.70;99.90
17774;DHT22;9011;33.236;-97.118;2023-11-21T01:35:24;15.70;99.90
17774;DHT22;9011;33.236;-97.118;2023-11-21T01:37:51;15.60;99.90
17774;DHT22;9011;33.236;-97.118;2023-11-21T01:40:19;15.60;99.90
17774;DHT22;9011;33.236;-97.118;2023-11-21T01:42:47;15.50;99.90
17774;DHT22;9011;33.236;-97.118;2023-11-21T01:45:15;15.40;99.90
17774;DHT22;9011;33.236;-97.118;2023-11-21T01:47:43;15.40;99.90
17774;DHT22;9011;33.236;-97.118;2023-11-21T01:50:15;15.40;99.90
17774;DHT22;9011;33.236;-97.118;2023-11-21T01:52:45;15.30;99.90
17774;DHT22;9011;33.236;-97.118;2023-11-21T01:55:16;15.30;99.90
17774;DHT22;9011;33.236;-97.118;2023-11-21T01:57:45;15.20;99.90
17774;DHT22;9011;33.236;-97.118;2023-11-21T02:00:13;15.10;99.90
17774;DHT22;9011;33.236;-97.118;2023-11-21T02:02:46;15.10;99.90
17774;DHT22;9011;33.236;-97.118;2023-11-21T02:05:15;15.00;99.90
17774;DHT22;9011;33.236;-97.118;2023-11-21T02:07:46;14.90;99.90
17774;DHT22;9011;33.236;-97.118;2023-11-21T02:10:14;14.90;99.90
17774;DHT22;9011;33.236;-97.118;2023-11-21T02:12:42;14.90;99.90
17774;DHT22;9011;33.236;-97.118;2023-11-21T02:15:11;14.70;99.90
17774;DHT22;9011;33.236;-97.118;2023-11-21T02:17:42;14.80;99.90
17774;DHT22;9011;33.236;-97.118;2023-11-21T02:20:11;14.70;99.90
17774;DHT22;9011;33.236;-97.118;2023-11-21T02:22:42;14.60;99.90
17774;DHT22;9011;33.236;-97.118;2023-11-21T02:25:10;14.50;99.90
17774;DHT22;9011;33.236;-97.118;2023-11-21T02:27:38;14.40;99.90
17774;DHT22;9011;33.236;-97.118;2023-11-21T02:30:07;14.30;99.90
17774;DHT22;9011;33.236;-97.118;2023-11-21T02:32:38;14.30;99.90
17774;DHT22;9011;33.236;-97.118;2023-11-21T02:35:07;14.20;99.90
17774;DHT22;9011;33.236;-97.118;2023-11-21T02:37:35;14.20;99.90
17774;DHT22;9011;33.236;-97.118;2023-11-21T02:40:03;14.10;99.90
17774;DHT22;9011;33.236;-97.118;2023-11-21T02:42:33;14.10;99.90
17774;DHT22;9011;33.236;-97.118;2023-11-21T02:45:01;14.10;99.90
17774;DHT22;9011;33.236;-97.118;2023-11-21T02:47:28;14.00;99.90
17774;DHT22;9011;33.236;-97.118;2023-11-21T02:49:56;14.00;99.90
17774;DHT22;9011;33.236;-97.118;2023-11-21T02:52:24;13.90;99.90
17774;DHT22;9011;33.236;-97.118;2023-11-21T02:54:51;13.90;99.90
17774;DHT22;9011;33.236;-97.118;2023-11-21T02:57:19;13.80;99.90
17774;DHT22;9011;33.236;-97.118;2023-11-21T02:59:48;13.70;99.90
17774;DHT22;9011;33.236;-97.118;2023-11-21T03:02:16;13.70;99.90
17774;DHT22;9011;33.236;-97.118;2023-11-21T03:04:44;13.60;99.90
17774;DHT22;9011;33.236;-97.118;2023-11-21T03:07:11;13.70;99.90
17774;DHT22;9011;33.236;-97.118;2023-11-21T03:09:39;13.60;99.90
17774;DHT22;9011;33.236;-97.118;2023-11-21T03:12:07;13.60;99.90
17774;DHT22;9011;33.236;-97.118;2023-11-21T03:14:35;13.50;99.90
17774;DHT22;9011;33.236;-97.118;2023-11-21T03:17:05;13.40;99.90
17774;DHT22;9011;33.236;-97.118;2023-11-21T03:19:33;13.50;99.90
17774;DHT22;9011;33.236;-97.118;2023-11-21T03:22:00;13.40;99.90
17774;DHT22;9011;33.236;-97.118;2023-11-21T03:24:28;13.40;99.90
17774;DHT22;9011;33.236;-97.118;2023-11-21T03:26:55;13.30;99.90
17774;DHT22;9011;33.236;-97.118;2023-11-21T03:29:23;13.30;99.90
17774;DHT22;9011;33.236;-97.118;2023-11-21T03:31:51;13.30;99.90
17774;DHT22;9011;33.236;-97.118;2023-11-21T03:34:24;13.30;99.90
17774;DHT22;9011;33.236;-97.118;2023-11-21T03:36:52;13.20;99.90
17774;DHT22;9011;33.236;-97.118;2023-11-21T03:39:20;13.10;99.90
17774;DHT22;9011;33.236;-97.118;2023-11-21T03:41:48;13.10;99.90
17774;DHT22;9011;33.236;-97.118;2023-11-21T03:44:18;13.00;99.90
17774;DHT22;9011;33.236;-97.118;2023-11-21T03:46:47;13.00;99.90
17774;DHT22;9011;33.236;-97.118;2023-11-21T03:49:14;13.00;99.90
17774;DHT22;9011;33.236;-97.118;2023-11-21T03:51:43;13.00;99.90
17774;DHT22;9011;33.236;-97.118;2023-11-21T03:56:38;13.00;99.90
17774;DHT22;9011;33.236;-97.118;2023-11-21T03:59:06;12.90;99.90
17774;DHT22;9011;33.236;-97.118;2023-11-21T04:01:33;12.90;99.90
17774;DHT22;9011;33.236;-97.118;2023-11-21T04:04:01;12.80;99.90
17774;DHT22;9011;33.236;-97.118;2023-11-21T04:06:29;12.80;99.90
17774;DHT22;9011;33.236;-97.118;2023-11-21T04:08:57;12.80;99.90
17774;DHT22;9011;33.236;-97.118;2023-11-21T04:11:25;12.70;99.90
17774;DHT22;9011;33.236;-97.118;2023-11-21T04:13:54;12.70;99.90
17774;DHT22;9011;33.236;-97.118;2023-11-21T04:16:22;12.60;99.90
17774;DHT22;9011;33.236;-97.118;2023-11-21T04:18:50;12.60;99.90
17774;DHT22;9011;33.236;-97.118;2023-11-21T04:21:17;12.50;99.90
17774;DHT22;9011;33.236;-97.118;2023-11-21T04:23:45;12.50;99.90
17774;DHT22;9011;33.236;-97.118;2023-11-21T04:26:13;12.40;99.90
17774;DHT22;9011;33.236;-97.118;2023-11-21T04:28:41;12.50;99.90
17774;DHT22;9011;33.236;-97.118;2023-11-21T04:31:09;12.30;99.90
17774;DHT22;9011;33.236;-97.118;2023-11-21T04:33:36;12.30;99.90
17774;DHT22;9011;33.236;-97.118;2023-11-21T04:36:04;12.20;99.90
17774;DHT22;9011;33.236;-97.118;2023-11-21T04:38:32;12.20;99.90
17774;DHT22;9011;33.236;-97.118;2023-11-21T04:41:00;12.20;99.90
17774;DHT22;9011;33.236;-97.118;2023-11-21T04:43:29;12.20;99.90
17774;DHT22;9011;33.236;-97.118;2023-11-21T04:45:56;12.10;99.90
17774;DHT22;9011;33.236;-97.118;2023-11-21T04:48:24;12.20;99.90
17774;DHT22;9011;33.236;-97.118;2023-11-21T04:50:51;12.10;99.90
17774;DHT22;9011;33.236;-97.118;2023-11-21T04:53:19;12.10;99.90
17774;DHT22;9011;33.236;-97.118;2023-11-21T04:55:47;12.20;99.90
17774;DHT22;9011;33.236;-97.118;2023-11-21T04:58:15;12.20;99.90
17774;DHT22;9011;33.236;-97.118;2023-11-21T05:00:43;12.30;99.90
17774;DHT22;9011;33.236;-97.118;2023-11-21T05:03:11;12.40;99.90
17774;DHT22;9011;33.236;-97.118;2023-11-21T05:05:39;12.40;99.90
17774;DHT22;9011;33.236;-97.118;2023-11-21T05:08:06;12.40;99.90
17774;DHT22;9011;33.236;-97.118;2023-11-21T05:10:34;12.40;99.90
17774;DHT22;9011;33.236;-97.118;2023-11-21T05:13:04;12.40;99.90
17774;DHT22;9011;33.236;-97.118;2023-11-21T05:15:36;12.40;99.90
17774;DHT22;9011;33.236;-97.118;2023-11-21T05:18:04;12.50;99.90
17774;DHT22;9011;33.236;-97.118;2023-11-21T05:20:32;12.40;99.90
17774;DHT22;9011;33.236;-97.118;2023-11-21T05:23:00;12.40;99.90
17774;DHT22;9011;33.236;-97.118;2023-11-21T05:25:28;12.40;99.90
17774;DHT22;9011;33.236;-97.118;2023-11-21T05:27:56;12.40;99.90
17774;DHT22;9011;33.236;-97.118;2023-11-21T05:30:27;12.40;99.90
17774;DHT22;9011;33.236;-97.118;2023-11-21T05:35:23;12.40;99.90
17774;DHT22;9011;33.236;-97.118;2023-11-21T05:42:48;12.40;99.90
17774;DHT22;9011;33.236;-97.118;2023-11-21T05:45:18;12.40;99.90
17774;DHT22;9011;33.236;-97.118;2023-11-21T05:47:46;12.40;99.90
17774;DHT22;9011;33.236;-97.118;2023-11-21T05:50:14;12.40;99.90
17774;DHT22;9011;33.236;-97.118;2023-11-21T05:52:43;12.40;99.90
17774;DHT22;9011;33.236;-97.118;2023-11-21T05:55:11;12.40;99.90
17774;DHT22;9011;33.236;-97.118;2023-11-21T05:57:40;12.40;99.90
17774;DHT22;9011;33.236;-97.118;2023-11-21T06:00:09;12.40;99.90
17774;DHT22;9011;33.236;-97.118;2023-11-21T06:02:39;12.40;99.90
17774;DHT22;9011;33.236;-97.118;2023-11-21T06:05:07;12.30;99.90
17774;DHT22;9011;33.236;-97.118;2023-11-21T06:07:35;12.30;99.90
17774;DHT22;9011;33.236;-97.118;2023-11-21T06:10:06;12.30;99.90
17774;DHT22;9011;33.236;-97.118;2023-11-21T06:12:36;12.30;99.90
17774;DHT22;9011;33.236;-97.118;2023-11-21T06:15:05;12.20;99.90
17774;DHT22;9011;33.236;-97.118;2023-11-21T06:17:35;12.20;99.90
17774;DHT22;9011;33.236;-97.118;2023-11-21T06:20:03;12.10;99.90
17774;DHT22;9011;33.236;-97.118;2023-11-21T06:22:35;12.10;99.90
17774;DHT22;9011;33.236;-97.118;2023-11-21T06:25:05;12.10;99.90
17774;DHT22;9011;33.236;-97.118;2023-11-21T06:27:33;12.10;99.90
17774;DHT22;9011;33.236;-97.118;2023-11-21T06:30:02;12.10;99.90
17774;DHT22;9011;33.236;-97.118;2023-11-21T06:32:30;12.10;99.90
17774;DHT22;9011;33.236;-97.118;2023-11-21T06:34:58;12.00;99.90
17774;DHT22;9011;33.236;-97.118;2023-11-21T06:37:26;12.00;99.90
17774;DHT22;9011;33.236;-97.118;2023-11-21T06:39:54;12.00;99.90
17774;DHT22;9011;33.236;-97.118;2023-11-21T06:42:23;12.00;99.90
17774;DHT22;9011;33.236;-97.118;2023-11-21T06:44:51;12.00;99.90
17774;DHT22;9011;33.236;-97.118;2023-11-21T06:47:20;12.00;99.90
17774;DHT22;9011;33.236;-97.118;2023-11-21T06:49:48;12.00;99.90
17774;DHT22;9011;33.236;-97.118;2023-11-21T06:52:15;11.90;99.90
17774;DHT22;9011;33.236;-97.118;2023-11-21T06:54:43;11.90;99.90
17774;DHT22;9011;33.236;-97.118;2023-11-21T06:57:11;11.80;99.90
17774;DHT22;9011;33.236;-97.118;2023-11-21T06:59:40;11.70;99.90
17774;DHT22;9011;33.236;-97.118;2023-11-21T07:02:08;11.60;99.90
17774;DHT22;9011;33.236;-97.118;2023-11-21T07:04:35;11.60;99.90
17774;DHT22;9011;33.236;-97.118;2023-11-21T07:07:04;11.50;99.90
17774;DHT22;9011;33.236;-97.118;2023-11-21T07:09:33;11.50;99.90
17774;DHT22;9011;33.236;-97.118;2023-11-21T07:12:01;11.50;99.90
17774;DHT22;9011;33.236;-97.118;2023-11-21T07:14:30;11.40;99.90
17774;DHT22;9011;33.236;-97.118;2023-11-21T07:16:59;11.40;99.90
17774;DHT22;9011;33.236;-97.118;2023-11-21T07:19:27;11.40;99.90
17774;DHT22;9011;33.236;-97.118;2023-11-21T07:21:55;11.40;99.90
17774;DHT22;9011;33.236;-97.118;2023-11-21T07:24:23;11.20;99.90
17774;DHT22;9011;33.236;-97.118;2023-11-21T07:26:50;11.30;99.90
17774;DHT22;9011;33.236;-97.118;2023-11-21T07:29:24;11.30;99.90
17774;DHT22;9011;33.236;-97.118;2023-11-21T07:31:52;11.20;99.90
17774;DHT22;9011;33.236;-97.118;2023-11-21T07:34:21;11.20;99.90
17774;DHT22;9011;33.236;-97.118;2023-11-21T07:36:49;11.20;99.90
17774;DHT22;9011;33.236;-97.118;2023-11-21T07:39:16;11.20;99.90
17774;DHT22;9011;33.236;-97.118;2023-11-21T07:41:44;11.20;99.90
17774;DHT22;9011;33.236;-97.118;2023-11-21T07:44:15;11.20;99.90
17774;DHT22;9011;33.236;-97.118;2023-11-21T07:46:43;11.20;99.90
17774;DHT22;9011;33.236;-97.118;2023-11-21T07:49:11;11.20;99.90
17774;DHT22;9011;33.236;-97.118;2023-11-21T07:51:42;11.20;99.90
17774;DHT22;9011;33.236;-97.118;2023-11-21T07:54:10;11.20;99.90
17774;DHT22;9011;33.236;-97.118;2023-11-21T07:56:37;11.10;99.90
17774;DHT22;9011;33.236;-97.118;2023-11-21T07:59:05;11.20;99.90
17774;DHT22;9011;33.236;-97.118;2023-11-21T08:01:33;11.20;99.90
17774;DHT22;9011;33.236;-97.118;2023-11-21T08:04:00;11.20;99.90
17774;DHT22;9011;33.236;-97.118;2023-11-21T08:06:30;11.20;99.90
17774;DHT22;9011;33.236;-97.118;2023-11-21T08:08:58;11.20;99.90
17774;DHT22;9011;33.236;-97.118;2023-11-21T08:11:26;11.20;99.90
17774;DHT22;9011;33.236;-97.118;2023-11-21T08:13:55;11.20;99.90
17774;DHT22;9011;33.236;-97.118;2023-11-21T08:16:23;11.20;99.90
17774;DHT22;9011;33.236;-97.118;2023-11-21T08:18:52;11.10;99.90
17774;DHT22;9011;33.236;-97.118;2023-11-21T08:21:20;11.20;99.90
17774;DHT22;9011;33.236;-97.118;2023-11-21T08:23:50;11.20;99.90
17774;DHT22;9011;33.236;-97.118;2023-11-21T08:26:21;11.20;99.90
17774;DHT22;9011;33.236;-97.118;2023-11-21T08:28:49;11.20;99.90
17774;DHT22;9011;33.236;-97.118;2023-11-21T08:31:24;11.20;99.90
17774;DHT22;9011;33.236;-97.118;2023-11-21T08:33:52;11.10;99.90
17774;DHT22;9011;33.236;-97.118;2023-11-21T08:36:21;11.10;99.90
17774;DHT22;9011;33.236;-97.118;2023-11-21T08:38:50;11.10;99.90
17774;DHT22;9011;33.236;-97.118;2023-11-21T08:41:19;11.10;99.90
17774;DHT22;9011;33.236;-97.118;2023-11-21T08:43:50;11.10;99.90
17774;DHT22;9011;33.236;-97.118;2023-11-21T08:46:18;11.20;99.90
17774;DHT22;9011;33.236;-97.118;2023-11-21T08:48:45;11.20;99.90
17774;DHT22;9011;33.236;-97.118;2023-11-21T08:51:13;11.20;99.90
17774;DHT22;9011;33.236;-97.118;2023-11-21T08:53:42;11.20;99.90
17774;DHT22;9011;33.236;-97.118;2023-11-21T08:56:13;11.20;99.90
17774;DHT22;9011;33.236;-97.118;2023-11-21T08:58:41;11.20;99.90
17774;DHT22;9011;33.236;-97.118;2023-11-21T09:01:09;11.20;99.90
17774;DHT22;9011;33.236;-97.118;2023-11-21T09:03:38;11.10;99.90
17774;DHT22;9011;33.236;-97.118;2023-11-21T09:06:07;11.10;99.90
17774;DHT22;9011;33.236;-97.118;2023-11-21T09:08:36;11.10;99.90
17774;DHT22;9011;33.236;-97.118;2023-11-21T09:11:04;11.10;99.90
17774;DHT22;9011;33.236;-97.118;2023-11-21T09:13:31;11.10;99.90
17774;DHT22;9011;33.236;-97.118;2023-11-21T09:15:59;11.10;99.90
17774;DHT22;9011;33.236;-97.118;2023-11-21T09:18:27;11.10;99.90
17774;DHT22;9011;33.236;-97.118;2023-11-21T09:20:55;11.00;99.90
17774;DHT22;9011;33.236;-97.118;2023-11-21T09:23:23;11.00;99.90
17774;DHT22;9011;33.236;-97.118;2023-11-21T09:25:50;11.00;99.90
17774;DHT22;9011;33.236;-97.118;2023-11-21T09:28:18;11.00;99.90
17774;DHT22;9011;33.236;-97.118;2023-11-21T09:30:46;11.00;99.90
17774;DHT22;9011;33.236;-97.118;2023-11-21T09:33:15;11.00;99.90
17774;DHT22;9011;33.236;-97.118;2023-11-21T09:35:44;11.00;99.90
17774;DHT22;9011;33.236;-97.118;2023-11-21T09:38:11;10.90;99.90
17774;DHT22;9011;33.236;-97.118;2023-11-21T09:40:39;10.90;99.90
17774;DHT22;9011;33.236;-97.118;2023-11-21T09:43:09;10.90;99.90
17774;DHT22;9011;33.236;-97.118;2023-11-21T09:45:45;10.90;99.90
17774;DHT22;9011;33.236;-97.118;2023-11-21T09:48:13;10.90;99.90
17774;DHT22;9011;33.236;-97.118;2023-11-21T09:50:43;10.80;99.90
17774;DHT22;9011;33.236;-97.118;2023-11-21T09:53:16;10.90;99.90
17774;DHT22;9011;33.236;-97.118;2023-11-21T09:55:46;10.80;99.90
17774;DHT22;9011;33.236;-97.118;2023-11-21T09:58:14;10.70;99.90
17774;DHT22;9011;33.236;-97.118;2023-11-21T10:00:43;10.80;99.90
17774;DHT22;9011;33.236;-97.118;2023-11-21T10:03:11;10.80;99.90
17774;DHT22;9011;33.236;-97.118;2023-11-21T10:05:39;10.70;99.90
17774;DHT22;9011;33.236;-97.118;2023-11-21T10:08:10;10.70;99.90
17774;DHT22;9011;33.236;-97.118;2023-11-21T10:10:38;10.50;99.90
17774;DHT22;9011;33.236;-97.118;2023-11-21T10:13:12;10.50;99.90
17774;DHT22;9011;33.236;-97.118;2023-11-21T10:15:43;10.50;99.90
17774;DHT22;9011;33.236;-97.118;2023-11-21T10:18:15;10.50;99.90
17774;DHT22;9011;33.236;-97.118;2023-11-21T10:20:44;10.50;99.90
17774;DHT22;9011;33.236;-97.118;2023-11-21T10:23:19;10.40;99.90
17774;DHT22;9011;33.236;-97.118;2023-11-21T10:25:48;10.50;99.90
17774;DHT22;9011;33.236;-97.118;2023-11-21T10:28:17;10.40;99.90
17774;DHT22;9011;33.236;-97.118;2023-11-21T10:30:45;10.30;99.90
17774;DHT22;9011;33.236;-97.118;2023-11-21T10:33:13;10.30;99.90
17774;DHT22;9011;33.236;-97.118;2023-11-21T10:35:45;10.20;99.90
17774;DHT22;9011;33.236;-97.118;2023-11-21T10:38:18;10.30;99.90
17774;DHT22;9011;33.236;-97.118;2023-11-21T10:40:47;10.20;99.90
17774;DHT22;9011;33.236;-97.118;2023-11-21T10:43:16;10.20;99.90
17774;DHT22;9011;33.236;-97.118;2023-11-21T10:45:44;10.20;99.90
17774;DHT22;9011;33.236;-97.118;2023-11-21T10:48:13;10.20;99.90
17774;DHT22;9011;33.236;-97.118;2023-11-21T10:50:42;10.20;99.90
17774;DHT22;9011;33.236;-97.118;2023-11-21T10:53:10;10.20;99.90
17774;DHT22;9011;33.236;-97.118;2023-11-21T10:55:40;10.20;99.90
17774;DHT22;9011;33.236;-97.118;2023-11-21T10:58:07;10.20;99.90
17774;DHT22;9011;33.236;-97.118;2023-11-21T11:00:38;10.20;99.90
17774;DHT22;9011;33.236;-97.118;2023-11-21T11:03:06;10.20;99.90
17774;DHT22;9011;33.236;-97.118;2023-11-21T11:05:41;10.20;99.90
17774;DHT22;9011;33.236;-97.118;2023-11-21T11:08:20;10.20;99.90
17774;DHT22;9011;33.236;-97.118;2023-11-21T11:10:53;10.20;99.90
17774;DHT22;9011;33.236;-97.118;2023-11-21T11:13:21;10.10;99.90
17774;DHT22;9011;33.236;-97.118;2023-11-21T11:15:49;10.10;99.90
17774;DHT22;9011;33.236;-97.118;2023-11-21T11:18:17;10.10;99.90
17774;DHT22;9011;33.236;-97.118;2023-11-21T11:20:46;10.10;99.90
17774;DHT22;9011;33.236;-97.118;2023-11-21T11:23:32;10.10;99.90
17774;DHT22;9011;33.236;-97.118;2023-11-21T11:26:10;10.10;99.90
17774;DHT22;9011;33.236;-97.118;2023-11-21T11:28:47;10.10;99.90
17774;DHT22;9011;33.236;-97.118;2023-11-21T11:31:31;10.10;99.90
17774;DHT22;9011;33.236;-97.118;2023-11-21T11:34:11;10.00;99.90
17774;DHT22;9011;33.236;-97.118;2023-11-21T11:36:48;10.10;99.90
17774;DHT22;9011;33.236;-97.118;2023-11-21T11:39:29;10.10;99.90
17774;DHT22;9011;33.236;-97.118;2023-11-21T11:41:58;10.10;99.90
17774;DHT22;9011;33.236;-97.118;2023-11-21T11:44:47;10.00;99.90
17774;DHT22;9011;33.236;-97.118;2023-11-21T11:47:20;10.10;99.90
17774;DHT22;9011;33.236;-97.118;2023-11-21T11:50:02;10.00;99.90
17774;DHT22;9011;33.236;-97.118;2023-11-21T11:52:37;10.00;99.90
17774;DHT22;9011;33.236;-97.118;2023-11-21T11:55:08;10.00;99.90
17774;DHT22;9011;33.236;-97.118;2023-11-21T11:57:41;10.00;99.90
17774;DHT22;9011;33.236;-97.118;2023-11-21T12:00:10;10.10;99.90
17774;DHT22;9011;33.236;-97.118;2023-11-21T12:02:43;10.10;99.90
17774;DHT22;9011;33.236;-97.118;2023-11-21T12:05:11;10.10;99.90
17774;DHT22;9011;33.236;-97.118;2023-11-21T12:07:43;10.10;99.90
17774;DHT22;9011;33.236;-97.118;2023-11-21T12:10:13;10.20;99.90
17774;DHT22;9011;33.236;-97.118;2023-11-21T12:12:47;10.20;99.90
17774;DHT22;9011;33.236;-97.118;2023-11-21T12:15:15;10.20;99.90
17774;DHT22;9011;33.236;-97.118;2023-11-21T12:17:44;10.20;99.90
17774;DHT22;9011;33.236;-97.118;2023-11-21T12:20:13;10.20;99.90
17774;DHT22;9011;33.236;-97.118;2023-11-21T12:22:44;10.20;99.90
17774;DHT22;9011;33.236;-97.118;2023-11-21T12:25:18;10.20;99.90
17774;DHT22;9011;33.236;-97.118;2023-11-21T12:27:47;10.30;99.90
17774;DHT22;9011;33.236;-97.118;2023-11-21T12:30:17;10.20;99.90
17774;DHT22;9011;33.236;-97.118;2023-11-21T12:32:47;10.30;99.90
17774;DHT22;9011;33.236;-97.118;2023-11-21T12:35:15;10.30;99.90
17774;DHT22;9011;33.236;-97.118;2023-11-21T12:37:46;10.30;99.90
17774;DHT22;9011;33.236;-97.118;2023-11-21T12:40:14;10.30;99.90
17774;DHT22;9011;33.236;-97.118;2023-11-21T12:42:45;10.30;99.90
17774;DHT22;9011;33.236;-97.118;2023-11-21T12:45:22;10.30;99.90
17774;DHT22;9011;33.236;-97.118;2023-11-21T12:47:54;10.30;99.90
17774;DHT22;9011;33.236;-97.118;2023-11-21T12:50:24;10.30;99.90
17774;DHT22;9011;33.236;-97.118;2023-11-21T12:52:59;10.40;99.90
17774;DHT22;9011;33.236;-97.118;2023-11-21T12:55:30;10.40;99.90
17774;DHT22;9011;33.236;-97.118;2023-11-21T12:58:01;10.30;99.90
17774;DHT22;9011;33.236;-97.118;2023-11-21T13:00:37;10.40;99.90
17774;DHT22;9011;33.236;-97.118;2023-11-21T13:03:06;10.40;99.90
17774;DHT22;9011;33.236;-97.118;2023-11-21T13:05:36;10.30;99.90
17774;DHT22;9011;33.236;-97.118;2023-11-21T13:08:06;10.30;99.90
17774;DHT22;9011;33.236;-97.118;2023-11-21T13:10:36;10.40;99.90
17774;DHT22;9011;33.236;-97.118;2023-11-21T13:13:06;10.40;99.90
17774;DHT22;9011;33.236;-97.118;2023-11-21T13:15:39;10.40;99.90
17774;DHT22;9011;33.236;-97.118;2023-11-21T13:18:08;10.40;99.90
17774;DHT22;9011;33.236;-97.118;2023-11-21T13:20:37;10.40;99.90
17774;DHT22;9011;33.236;-97.118;2023-11-21T13:23:08;10.40;99.90
17774;DHT22;9011;33.236;-97.118;2023-11-21T13:25:38;10.40;99.90
17774;DHT22;9011;33.236;-97.118;2023-11-21T13:28:08;10.40;99.90
17774;DHT22;9011;33.236;-97.118;2023-11-21T13:30:38;10.40;99.90
17774;DHT22;9011;33.236;-97.118;2023-11-21T13:33:07;10.40;99.90
17774;DHT22;9011;33.236;-97.118;2023-11-21T13:35:37;10.40;99.90
17774;DHT22;9011;33.236;-97.118;2023-11-21T13:38:08;10.50;99.90
17774;DHT22;9011;33.236;-97.118;2023-11-21T13:40:37;10.50;99.90
17774;DHT22;9011;33.236;-97.118;2023-11-21T13:43:09;10.50;99.90
17774;DHT22;9011;33.236;-97.118;2023-11-21T13:45:38;10.50;99.90
17774;DHT22;9011;33.236;-97.118;2023-11-21T13:48:07;10.40;99.90
17774;DHT22;9011;33.236;-97.118;2023-11-21T13:50:36;10.40;99.90
17774;DHT22;9011;33.236;-97.118;2023-11-21T13:53:05;10.40;99.90
17774;DHT22;9011;33.236;-97.118;2023-11-21T13:55:42;10.50;99.90
17774;DHT22;9011;33.236;-97.118;2023-11-21T13:58:12;10.40;99.90
17774;DHT22;9011;33.236;-97.118;2023-11-21T14:00:46;10.40;99.90
17774;DHT22;9011;33.236;-97.118;2023-11-21T14:03:22;10.40;99.90
17774;DHT22;9011;33.236;-97.118;2023-11-21T14:05:58;10.40;99.90
17774;DHT22;9011;33.236;-97.118;2023-11-21T14:08:27;10.30;99.90
17774;DHT22;9011;33.236;-97.118;2023-11-21T14:10:55;10.40;99.90
17774;DHT22;9011;33.236;-97.118;2023-11-21T14:13:25;10.40;99.90
17774;DHT22;9011;33.236;-97.118;2023-11-21T14:15:54;10.30;99.90
17774;DHT22;9011;33.236;-97.118;2023-11-21T14:18:25;10.30;99.90
17774;DHT22;9011;33.236;-97.118;2023-11-21T14:21:00;10.30;99.90
17774;DHT22;9011;33.236;-97.118;2023-11-21T14:23:28;10.30;99.90
17774;DHT22;9011;33.236;-97.118;2023-11-21T14:25:56;10.40;99.90
17774;DHT22;9011;33.236;-97.118;2023-11-21T14:28:24;10.40;99.90
17774;DHT22;9011;33.236;-97.118;2023-11-21T14:30:53;10.30;99.90
17774;DHT22;9011;33.236;-97.118;2023-11-21T14:33:21;10.30;99.90
17774;DHT22;9011;33.236;-97.118;2023-11-21T14:35:49;10.30;99.90
17774;DHT22;9011;33.236;-97.118;2023-11-21T14:38:16;10.30;99.90
17774;DHT22;9011;33.236;-97.118;2023-11-21T14:40:44;10.40;99.90
17774;DHT22;9011;33.236;-97.118;2023-11-21T14:43:13;10.40;99.90
17774;DHT22;9011;33.236;-97.118;2023-11-21T14:45:42;10.50;99.90
17774;DHT22;9011;33.236;-97.118;2023-11-21T14:48:12;10.50;99.90
17774;DHT22;9011;33.236;-97.118;2023-11-21T14:50:43;10.50;99.90
17774;DHT22;9011;33.236;-97.118;2023-11-21T14:53:35;10.50;99.90
17774;DHT22;9011;33.236;-97.118;2023-11-21T14:56:10;10.50;99.90
17774;DHT22;9011;33.236;-97.118;2023-11-21T14:58:47;10.60;99.90
17774;DHT22;9011;33.236;-97.118;2023-11-21T15:01:14;10.60;99.90
17774;DHT22;9011;33.236;-97.118;2023-11-21T15:03:54;10.60;99.90
17774;DHT22;9011;33.236;-97.118;2023-11-21T15:06:21;10.60;99.90
17774;DHT22;9011;33.236;-97.118;2023-11-21T15:08:56;10.60;99.90
17774;DHT22;9011;33.236;-97.118;2023-11-21T15:11:47;10.70;99.90
17774;DHT22;9011;33.236;-97.118;2023-11-21T15:14:15;10.90;99.90
17774;DHT22;9011;33.236;-97.118;2023-11-21T15:16:48;10.90;99.90
17774;DHT22;9011;33.236;-97.118;2023-11-21T15:19:20;10.90;99.90
17774;DHT22;9011;33.236;-97.118;2023-11-21T15:21:52;10.90;99.90
17774;DHT22;9011;33.236;-97.118;2023-11-21T15:24:20;11.10;99.90
17774;DHT22;9011;33.236;-97.118;2023-11-21T15:26:48;11.10;99.90
17774;DHT22;9011;33.236;-97.118;2023-11-21T15:29:16;11.10;99.90
17774;DHT22;9011;33.236;-97.118;2023-11-21T15:31:44;11.00;99.90
17774;DHT22;9011;33.236;-97.118;2023-11-21T15:34:15;11.10;99.90
17774;DHT22;9011;33.236;-97.118;2023-11-21T15:36:43;11.00;99.90
17774;DHT22;9011;33.236;-97.118;2023-11-21T15:39:11;11.00;99.90